Time;durP1;ratioP1;P1;durP2;ratioP2;P2;SDS_P1;SDS_P2;PMS_P1;PMS_P2;Temp;Humidity;BMP_temperature;BMP_pressure;BME280_temperature;BME280_humidity;BME280_pressure;Samples;Min_cycle;Max_cycle;Signal;HPM_P1;HPM_P2
2023/06/29 00:00:25;;;;;;;9.82;5.88;;;;;;;11.11;100.00;93181.25;2017991;29;20591;-82
2023/06/29 00:01:35;;;;;;;8.30;5.68;;;;;;;11.14;100.00;93175.03;2018235;29;20044;-82
2023/06/29 00:02:41;;;;;;;9.63;5.10;;;;;;;11.23;100.00;93177.88;2020531;29;20169;-84
2023/06/29 00:03:48;;;;;;;7.32;5.63;;;;;;;11.19;100.00;93182.56;2018023;29;20029;-81
2023/06/29 00:04:56;;;;;;;9.20;5.90;;;;;;;11.21;100.00;93182.16;2002186;29;20025;-82
2023/06/29 00:06:03;;;;;;;8.07;5.28;;;;;;;11.23;100.00;93185.91;2017833;29;20060;-82
2023/06/29 00:07:11;;;;;;;9.20;5.22;;;;;;;11.21;100.00;93174.88;2020762;29;20040;-81
2023/06/29 00:08:17;;;;;;;7.32;5.00;;;;;;;11.24;100.00;93186.69;2014692;29;20025;-84
2023/06/29 00:09:24;;;;;;;7.25;5.15;;;;;;;11.25;100.00;93174.81;2026042;29;20032;-82
2023/06/29 00:10:34;;;;;;;9.98;5.55;;;;;;;11.18;100.00;93174.97;2017984;29;20056;-83
2023/06/29 00:11:42;;;;;;;9.52;5.30;;;;;;;11.14;100.00;93177.72;2011123;29;20529;-83
2023/06/29 00:12:48;;;;;;;9.25;5.53;;;;;;;11.04;100.00;93174.13;2002440;29;20042;-81
2023/06/29 00:13:53;;;;;;;7.90;5.18;;;;;;;11.00;100.00;93181.47;2009355;29;20290;-82
2023/06/29 00:14:59;;;;;;;8.25;5.32;;;;;;;11.14;100.00;93175.03;2018586;29;20482;-85
2023/06/29 00:16:04;;;;;;;8.32;5.00;;;;;;;11.13;100.00;93180.81;2010664;29;20059;-81
2023/06/29 00:17:17;;;;;;;9.63;5.70;;;;;;;11.05;100.00;93170.28;2004041;29;20034;-82
2023/06/29 00:18:24;;;;;;;10.68;5.55;;;;;;;11.06;100.00;93171.03;2015098;29;20049;-82
2023/06/29 00:19:35;;;;;;;10.50;5.68;;;;;;;11.13;100.00;93172.78;2010226;29;20037;-84
2023/06/29 00:20:38;;;;;;;7.68;5.60;;;;;;;11.11;100.00;93167.88;2005862;29;20063;-81
2023/06/29 00:21:47;;;;;;;9.60;4.85;;;;;;;11.04;100.00;93171.44;2013234;29;20033;-82
2023/06/29 00:22:56;;;;;;;10.05;5.05;;;;;;;11.03;100.00;93175.28;2011868;29;20779;-82
2023/06/29 00:24:04;;;;;;;6.78;5.40;;;;;;;10.92;100.00;93164.06;2012162;29;20036;-82
2023/06/29 00:25:11;;;;;;;7.72;5.38;;;;;;;11.01;100.00;93166.16;2011307;29;20119;-82
2023/06/29 00:26:18;;;;;;;9.85;5.38;;;;;;;11.03;100.00;93164.59;2010873;29;20025;-82
2023/06/29 00:27:25;;;;;;;8.93;4.63;;;;;;;11.04;100.00;93163.41;2010261;29;20032;-83
2023/06/29 00:28:32;;;;;;;9.02;5.32;;;;;;;11.01;100.00;93158.16;2019280;29;20029;-82
2023/06/29 00:29:44;;;;;;;10.48;5.47;;;;;;;10.97;100.00;93155.53;2016939;29;20044;-81
2023/06/29 00:30:53;;;;;;;7.65;5.38;;;;;;;10.99;100.00;93155.16;2017954;29;20414;-81
2023/06/29 00:31:58;;;;;;;8.43;5.32;;;;;;;10.96;100.00;93156.72;2018300;29;20025;-82
2023/06/29 00:33:07;;;;;;;7.43;5.15;;;;;;;11.00;100.00;93157.41;2008951;29;20427;-82
2023/06/29 00:34:15;;;;;;;8.38;5.22;;;;;;;10.90;100.00;93147.69;2013377;29;20757;-84
2023/06/29 00:35:38;;;;;;;7.70;4.97;;;;;;;10.93;100.00;93148.78;2017815;29;20029;-81
2023/06/29 00:36:47;;;;;;;8.23;5.28;;;;;;;10.93;100.00;93154.91;2010913;29;20086;-83
2023/06/29 00:37:57;;;;;;;8.57;5.50;;;;;;;10.87;100.00;93156.56;2009856;29;20029;-81
2023/06/29 00:39:19;;;;;;;6.78;5.03;;;;;;;10.92;100.00;93153.38;2015388;29;20121;-82
2023/06/29 00:40:25;;;;;;;7.72;5.50;;;;;;;10.94;100.00;93155.66;2023831;29;20307;-83
2023/06/29 00:41:33;;;;;;;9.50;5.45;;;;;;;10.86;100.00;93149.69;2010954;29;20036;-81
2023/06/29 00:42:42;;;;;;;6.40;5.22;;;;;;;10.86;100.00;93155.06;2003259;29;20040;-82
2023/06/29 00:43:50;;;;;;;6.85;5.78;;;;;;;10.89;100.00;93148.88;2011247;29;20052;-81
2023/06/29 00:44:58;;;;;;;9.27;5.40;;;;;;;10.79;100.00;93153.28;2008818;29;20037;-83
2023/06/29 00:46:07;;;;;;;10.35;5.57;;;;;;;10.83;100.00;93145.19;2004974;29;20055;-81
2023/06/29 00:47:15;;;;;;;10.20;5.35;;;;;;;10.73;100.00;93149.59;2009128;29;20040;-81
2023/06/29 00:48:19;;;;;;;8.98;5.88;;;;;;;10.75;100.00;93146.50;2008675;29;20029;-83
2023/06/29 00:49:25;;;;;;;9.35;5.60;;;;;;;10.78;100.00;93143.00;2016986;29;20080;-84
2023/06/29 00:50:30;;;;;;;8.00;5.95;;;;;;;10.71;100.00;93153.84;2016868;29;20032;-82
2023/06/29 00:51:39;;;;;;;7.45;5.13;;;;;;;10.73;100.00;93148.84;2011293;29;20116;-84
2023/06/29 00:52:46;;;;;;;7.82;4.57;;;;;;;10.70;100.00;93150.41;2014082;29;20778;-81
2023/06/29 00:53:53;;;;;;;7.88;5.38;;;;;;;10.63;100.00;93144.50;2003755;29;20105;-81
2023/06/29 00:54:59;;;;;;;7.43;5.18;;;;;;;10.64;100.00;93146.00;2011997;29;20191;-80
2023/06/29 00:56:06;;;;;;;9.02;5.40;;;;;;;10.59;100.00;93145.31;2020257;29;20037;-82
2023/06/29 00:57:14;;;;;;;7.57;5.63;;;;;;;10.65;100.00;93144.81;2011160;29;20032;-82
2023/06/29 00:58:19;;;;;;;9.60;5.47;;;;;;;10.65;100.00;93139.47;2009894;29;20037;-82
2023/06/29 00:59:30;;;;;;;9.38;5.90;;;;;;;10.67;100.00;93153.16;2000996;29;20533;-83
2023/06/29 01:00:34;;;;;;;11.20;5.47;;;;;;;10.61;100.00;93144.13;2004431;29;20030;-80
2023/06/29 01:01:45;;;;;;;9.75;5.80;;;;;;;10.62;100.00;93148.31;2008476;29;20022;-81
2023/06/29 01:03:09;;;;;;;10.98;5.50;;;;;;;10.69;100.00;93140.16;2019554;29;20037;-82
2023/06/29 01:04:25;;;;;;;6.63;4.53;;;;;;;10.73;100.00;93146.16;2009552;29;20061;-82
2023/06/29 01:05:33;;;;;;;11.57;5.88;;;;;;;10.67;100.00;93142.47;2009543;29;20033;-80
2023/06/29 01:07:04;;;;;;;9.50;5.93;;;;;;;10.63;100.00;93137.22;2003372;29;20029;-81
2023/06/29 01:08:23;;;;;;;9.05;6.15;;;;;;;10.66;100.00;93138.31;2003570;29;20048;-81
2023/06/29 01:09:29;;;;;;;6.78;5.45;;;;;;;10.59;100.00;93141.88;2009298;29;20049;-82
2023/06/29 01:10:40;;;;;;;9.65;5.97;;;;;;;10.50;100.00;93137.09;2015990;29;20402;-81
2023/06/29 01:11:47;;;;;;;10.88;5.85;;;;;;;10.62;100.00;93134.94;2022706;29;20033;-81
2023/06/29 01:12:58;;;;;;;9.30;6.03;;;;;;;10.57;100.00;93134.25;2026285;29;20388;-81
2023/06/29 01:14:12;;;;;;;9.55;5.85;;;;;;;10.56;100.00;93137.38;2018274;29;20028;-83
2023/06/29 01:15:16;;;;;;;9.23;6.13;;;;;;;10.57;100.00;93131.59;2013483;29;20033;-80
2023/06/29 01:16:26;;;;;;;10.52;5.53;;;;;;;10.49;100.00;93132.94;2016276;29;20034;-83
2023/06/29 01:17:37;;;;;;;6.97;5.97;;;;;;;10.56;100.00;93126.69;2012347;29;20025;-83
2023/06/29 01:18:49;;;;;;;9.45;5.72;;;;;;;10.52;100.00;93132.09;2006661;29;20115;-80
2023/06/29 01:19:53;;;;;;;8.55;5.35;;;;;;;10.51;100.00;93135.94;2013911;29;20471;-80
2023/06/29 01:21:01;;;;;;;6.78;5.20;;;;;;;10.53;100.00;93130.91;2004291;29;20133;-82
2023/06/29 01:22:18;;;;;;;10.02;5.95;;;;;;;10.43;100.00;93123.88;2003766;29;20456;-81
2023/06/29 01:23:29;;;;;;;6.20;5.57;;;;;;;10.46;100.00;93122.31;2017656;29;20025;-83
2023/06/29 01:24:48;;;;;;;8.93;5.53;;;;;;;10.44;100.00;93125.38;2009870;29;20098;-80
2023/06/29 01:25:55;;;;;;;7.07;5.60;;;;;;;10.44;100.00;93132.66;2006305;29;20030;-81
2023/06/29 01:27:05;;;;;;;8.27;6.15;;;;;;;10.44;100.00;93128.06;2018126;29;20029;-81
2023/06/29 01:28:11;;;;;;;10.80;6.10;;;;;;;10.40;100.00;93119.38;2009947;29;20030;-83
2023/06/29 01:29:24;;;;;;;10.68;5.93;;;;;;;10.37;100.00;93119.47;2003183;29;20048;-83
2023/06/29 01:30:33;;;;;;;6.80;5.55;;;;;;;10.37;100.00;93120.22;2006641;29;20026;-82
2023/06/29 01:31:41;;;;;;;7.63;5.30;;;;;;;10.36;100.00;93123.28;2004485;29;20555;-83
2023/06/29 01:32:47;;;;;;;9.98;5.50;;;;;;;10.42;100.00;93113.63;2010113;29;20032;-82
2023/06/29 01:33:56;;;;;;;8.43;5.88;;;;;;;10.41;100.00;93114.78;2004513;29;20025;-82
2023/06/29 01:35:07;;;;;;;6.75;5.72;;;;;;;10.35;100.00;93114.50;2013283;29;20499;-80
2023/06/29 01:36:39;;;;;;;10.68;6.40;;;;;;;10.27;100.00;93118.50;2024880;29;20035;-82
2023/06/29 01:38:19;;;;;;;13.10;5.72;;;;;;;10.36;100.00;93108.03;2016591;29;20136;-83
2023/06/29 01:39:30;;;;;;;7.63;6.13;;;;;;;10.41;100.00;93115.53;2007089;29;20037;-82
2023/06/29 01:40:43;;;;;;;7.97;5.93;;;;;;;10.41;100.00;93102.19;1997425;29;20071;-81
2023/06/29 01:41:51;;;;;;;10.65;5.93;;;;;;;10.27;100.00;93105.13;2008495;29;20054;-82
2023/06/29 01:42:59;;;;;;;10.07;5.75;;;;;;;10.18;100.00;93108.34;2004552;29;20553;-82
2023/06/29 01:44:11;;;;;;;9.20;5.90;;;;;;;10.21;100.00;93106.78;2009693;29;20033;-83
2023/06/29 01:45:21;;;;;;;8.65;6.18;;;;;;;10.19;100.00;93106.44;2003791;29;20060;-80
2023/06/29 01:46:29;;;;;;;9.75;6.45;;;;;;;10.17;100.00;93106.09;2014239;29;20060;-83
2023/06/29 01:47:36;;;;;;;6.50;5.50;;;;;;;10.15;100.00;93100.41;2007758;29;20033;-82
2023/06/29 01:48:43;;;;;;;8.52;6.00;;;;;;;10.17;100.00;93100.75;2004061;29;20025;-83
2023/06/29 01:49:51;;;;;;;6.70;5.68;;;;;;;10.23;100.00;93109.78;2019935;29;20037;-83
2023/06/29 01:50:58;;;;;;;6.68;5.55;;;;;;;10.25;100.00;93104.81;2023070;29;20028;-84
2023/06/29 01:51:59;;;;;;;10.70;5.70;;;;;;;10.18;100.00;93110.25;2024582;29;20076;-85
2023/06/29 01:53:00;;;;;;;10.75;6.45;;;;;;;10.12;100.00;93114.59;2009522;29;20029;-82
2023/06/29 01:54:02;;;;;;;10.73;6.18;;;;;;;10.19;100.00;93114.47;1994249;29;20073;-83
2023/06/29 01:55:03;;;;;;;10.05;6.43;;;;;;;10.03;100.00;93110.56;2009930;29;20101;-81
2023/06/29 01:56:04;;;;;;;8.82;6.13;;;;;;;10.13;100.00;93111.50;2011442;29;20462;-84
2023/06/29 01:57:06;;;;;;;7.28;5.65;;;;;;;10.12;100.00;93110.00;2014773;29;20040;-80
2023/06/29 01:58:07;;;;;;;11.45;6.63;;;;;;;10.07;100.00;93113.91;2017433;29;20168;-81
2023/06/29 01:59:10;;;;;;;10.20;6.22;;;;;;;10.08;100.00;93110.06;2002861;29;20034;-80
2023/06/29 02:00:12;;;;;;;7.97;5.88;;;;;;;10.10;100.00;93115.00;2009494;29;20403;-81
2023/06/29 02:01:13;;;;;;;9.85;6.20;;;;;;;10.13;100.00;93111.50;2017518;29;20033;-82
2023/06/29 02:02:14;;;;;;;9.23;6.28;;;;;;;10.12;100.00;93107.31;2016338;29;20112;-82
2023/06/29 02:03:15;;;;;;;8.10;6.45;;;;;;;10.07;100.00;93118.50;2017690;29;20036;-82
2023/06/29 02:04:16;;;;;;;8.48;5.95;;;;;;;10.05;100.00;93116.25;2014696;29;20029;-83
2023/06/29 02:05:19;;;;;;;13.05;6.43;;;;;;;10.08;100.00;93112.72;2010872;29;20060;-82
2023/06/29 02:06:20;;;;;;;9.68;5.97;;;;;;;10.16;100.00;93110.69;2017562;29;20021;-84
2023/06/29 02:07:21;;;;;;;10.90;5.65;;;;;;;10.05;100.00;93110.13;2016215;29;20080;-83
2023/06/29 02:08:23;;;;;;;7.95;5.93;;;;;;;10.00;100.00;93106.03;2009397;29;20029;-83
2023/06/29 02:09:27;;;;;;;12.85;6.30;;;;;;;10.04;100.00;93106.72;2011993;29;20040;-83
2023/06/29 02:10:29;;;;;;;7.03;6.22;;;;;;;9.97;100.00;93112.22;2010293;29;20026;-81
2023/06/29 02:11:32;;;;;;;8.70;5.78;;;;;;;10.00;100.00;93107.94;2009319;29;20037;-83
2023/06/29 02:12:34;;;;;;;11.10;6.15;;;;;;;10.00;100.00;93105.28;2009366;29;20064;-82
2023/06/29 02:13:36;;;;;;;10.13;5.85;;;;;;;9.99;100.00;93109.13;2008731;29;20065;-83
2023/06/29 02:14:37;;;;;;;10.88;6.55;;;;;;;10.02;100.00;93101.03;2017976;29;20051;-82
2023/06/29 02:15:38;;;;;;;11.02;5.88;;;;;;;10.03;100.00;93105.22;2014292;29;20025;-82
2023/06/29 02:16:39;;;;;;;11.43;6.43;;;;;;;10.04;100.00;93103.28;2015940;29;20585;-83
2023/06/29 02:17:40;;;;;;;9.73;6.43;;;;;;;10.04;100.00;93101.38;2017266;29;20541;-81
2023/06/29 02:18:41;;;;;;;9.40;6.22;;;;;;;10.00;100.00;93092.66;2017695;29;20024;-81
2023/06/29 02:19:43;;;;;;;11.68;6.30;;;;;;;9.99;100.00;93093.84;2020855;29;20052;-82
2023/06/29 02:20:44;;;;;;;8.23;6.07;;;;;;;9.98;100.00;93099.59;2009234;29;20029;-81
2023/06/29 02:21:47;;;;;;;9.60;6.63;;;;;;;9.94;100.00;93099.66;2009191;29;20443;-81
2023/06/29 02:22:48;;;;;;;6.60;5.30;;;;;;;9.96;100.00;93100.00;2013240;29;20612;-82
2023/06/29 02:23:52;;;;;;;10.23;6.35;;;;;;;9.87;100.00;93101.72;2016892;29;20044;-80
2023/06/29 02:24:53;;;;;;;9.65;5.75;;;;;;;9.88;100.00;93101.31;2017704;29;20123;-81
2023/06/29 02:25:55;;;;;;;8.88;5.60;;;;;;;9.87;100.00;93099.06;2010147;29;20467;-83
2023/06/29 02:27:05;;;;;;;10.52;6.35;;;;;;;9.86;100.00;93105.56;2009149;29;20085;-81
2023/06/29 02:28:07;;;;;;;8.85;6.13;;;;;;;9.85;100.00;93104.81;2013919;29;20089;-82
2023/06/29 02:29:08;;;;;;;8.23;6.18;;;;;;;9.89;100.00;93107.41;2017807;29;20413;-81
2023/06/29 02:30:10;;;;;;;10.02;6.95;;;;;;;9.91;100.00;93110.41;2006500;29;20038;-82
2023/06/29 02:31:14;;;;;;;7.80;6.10;;;;;;;9.89;100.00;93108.16;2004866;29;20403;-82
2023/06/29 02:32:16;;;;;;;7.63;5.85;;;;;;;9.88;100.00;93109.34;2012180;29;20551;-80
2023/06/29 02:33:18;;;;;;;8.73;6.10;;;;;;;9.82;100.00;93114.38;2009820;29;20033;-82
2023/06/29 02:34:20;;;;;;;7.45;6.25;;;;;;;9.80;100.00;93106.03;2003184;29;20090;-82
2023/06/29 02:35:21;;;;;;;8.38;5.80;;;;;;;9.86;100.00;93111.66;1994426;29;20508;-82
2023/06/29 02:36:22;;;;;;;10.65;6.07;;;;;;;9.78;100.00;93107.59;2009658;29;20032;-81
2023/06/29 02:37:23;;;;;;;9.10;5.85;;;;;;;9.84;100.00;93105.97;2012047;29;20029;-83
2023/06/29 02:38:24;;;;;;;11.80;6.07;;;;;;;9.82;100.00;93102.94;2010164;29;20048;-82
2023/06/29 02:39:25;;;;;;;10.60;6.57;;;;;;;9.81;100.00;93107.53;2016864;29;20032;-82
2023/06/29 02:40:26;;;;;;;9.50;6.40;;;;;;;9.84;100.00;93106.72;2016203;29;20105;-82
2023/06/29 02:41:27;;;;;;;8.27;6.18;;;;;;;9.79;100.00;93107.22;2024293;29;20024;-81
2023/06/29 02:42:28;;;;;;;9.55;6.13;;;;;;;9.80;100.00;93107.97;2009991;29;20048;-83
2023/06/29 02:43:29;;;;;;;9.95;6.38;;;;;;;9.78;100.00;93113.69;2009329;29;20124;-84
2023/06/29 02:44:34;;;;;;;9.23;5.93;;;;;;;9.81;100.00;93107.53;2016385;29;20056;-82
2023/06/29 02:45:36;;;;;;;10.23;6.10;;;;;;;9.80;100.00;93105.28;2014120;29;20363;-83
2023/06/29 02:46:37;;;;;;;10.60;6.43;;;;;;;9.88;100.00;93108.56;2011557;29;20430;-81
2023/06/29 02:47:39;;;;;;;9.05;6.57;;;;;;;9.78;100.00;93099.59;2024553;29;20048;-84
2023/06/29 02:48:40;;;;;;;9.60;6.07;;;;;;;9.76;100.00;93101.94;2019940;29;20128;-82
2023/06/29 02:49:41;;;;;;;10.48;6.38;;;;;;;9.70;100.00;93108.91;2009538;29;20025;-84
2023/06/29 02:50:42;;;;;;;8.00;6.13;;;;;;;9.70;100.00;93107.00;2010815;29;20032;-81
2023/06/29 02:51:43;;;;;;;9.35;6.20;;;;;;;9.72;100.00;93107.34;2017205;29;20040;-82
2023/06/29 02:52:44;;;;;;;6.65;5.93;;;;;;;9.79;100.00;93104.53;2017545;29;20049;-84
2023/06/29 02:53:45;;;;;;;10.05;6.10;;;;;;;9.78;100.00;93110.28;2025077;29;20094;-79
2023/06/29 02:54:46;;;;;;;9.45;6.47;;;;;;;9.78;100.00;93107.59;2025443;29;20110;-82
2023/06/29 02:55:47;;;;;;;9.85;6.18;;;;;;;9.83;100.00;93109.78;2024445;29;20039;-81
2023/06/29 02:56:48;;;;;;;8.68;5.70;;;;;;;9.79;100.00;93114.47;2007451;29;20488;-82
2023/06/29 02:57:49;;;;;;;8.02;5.72;;;;;;;9.82;100.00;93100.28;1999676;29;20095;-81
2023/06/29 02:58:50;;;;;;;8.32;6.32;;;;;;;9.86;100.00;93114.31;1998692;29;20026;-85
2023/06/29 02:59:51;;;;;;;7.15;5.65;;;;;;;9.73;100.00;93113.41;2008749;29;20069;-83
2023/06/29 03:00:52;;;;;;;10.77;6.05;;;;;;;9.68;100.00;93109.31;2000215;29;20053;-82
2023/06/29 03:01:59;;;;;;;8.98;6.18;;;;;;;9.75;100.00;93111.13;2008528;29;20026;-83
2023/06/29 03:03:00;;;;;;;8.75;5.55;;;;;;;9.81;100.00;93107.53;2015010;29;20056;-85
2023/06/29 03:04:01;;;;;;;8.32;6.20;;;;;;;9.81;100.00;93109.47;1997945;29;20035;-82
2023/06/29 03:05:05;;;;;;;11.60;7.03;;;;;;;9.80;100.00;93107.97;2003452;29;20066;-84
2023/06/29 03:06:08;;;;;;;10.35;6.18;;;;;;;9.81;100.00;93102.19;2009673;29;20144;-79
2023/06/29 03:07:09;;;;;;;6.90;5.82;;;;;;;9.81;100.00;93110.22;2015943;29;20096;-80
2023/06/29 03:08:10;;;;;;;7.22;5.80;;;;;;;9.84;100.00;93098.72;2011135;29;20487;-80
2023/06/29 03:09:11;;;;;;;7.55;5.97;;;;;;;9.81;100.00;93109.47;2001173;29;20142;-81
2023/06/29 03:10:12;;;;;;;6.40;5.75;;;;;;;9.85;100.00;93107.47;2008939;29;20041;-85
2023/06/29 03:11:13;;;;;;;9.30;6.43;;;;;;;9.81;100.00;93102.19;2008957;29;20094;-80
2023/06/29 03:12:14;;;;;;;6.32;5.70;;;;;;;9.83;100.00;93099.88;2019004;29;20037;-83
2023/06/29 03:13:15;;;;;;;11.57;6.60;;;;;;;9.87;100.00;93107.81;2009164;29;20111;-80
2023/06/29 03:14:16;;;;;;;7.88;6.30;;;;;;;9.77;100.00;93096.19;2003071;29;20061;-82
2023/06/29 03:15:17;;;;;;;6.82;6.13;;;;;;;9.79;100.00;93098.44;2002489;29;20026;-82
2023/06/29 03:16:18;;;;;;;11.30;6.03;;;;;;;9.74;100.00;93096.22;2005548;29;20034;-81
2023/06/29 03:17:19;;;;;;;7.38;6.30;;;;;;;9.78;100.00;93096.94;2011523;29;20132;-82
2023/06/29 03:18:20;;;;;;;10.10;6.63;;;;;;;9.72;100.00;93095.91;1995815;29;20046;-83
2023/06/29 03:19:21;;;;;;;11.52;5.85;;;;;;;9.78;100.00;93091.59;2003248;29;20095;-80
2023/06/29 03:20:25;;;;;;;9.95;6.05;;;;;;;9.76;100.00;93093.94;2010855;29;20061;-84
2023/06/29 03:21:32;;;;;;;10.93;6.32;;;;;;;9.79;100.00;93093.13;2007695;29;20029;-81
2023/06/29 03:22:39;;;;;;;9.38;5.75;;;;;;;9.75;100.00;93090.50;2011249;29;20419;-80
2023/06/29 03:23:48;;;;;;;6.60;5.90;;;;;;;9.69;100.00;93094.81;2006394;29;20059;-81
2023/06/29 03:24:58;;;;;;;8.15;6.70;;;;;;;9.74;100.00;93083.63;2010525;29;20854;-83
2023/06/29 03:26:05;;;;;;;7.93;6.13;;;;;;;9.65;100.00;93086.09;2007014;29;20032;-80
2023/06/29 03:27:12;;;;;;;8.75;5.70;;;;;;;9.71;100.00;93092.50;2005089;29;20030;-81
2023/06/29 03:28:17;;;;;;;10.25;6.40;;;;;;;9.62;100.00;93086.19;2006080;29;20025;-82
2023/06/29 03:29:25;;;;;;;9.07;6.20;;;;;;;9.70;100.00;93084.88;2011157;29;20031;-83
2023/06/29 03:30:34;;;;;;;8.00;6.50;;;;;;;9.65;100.00;93085.34;2013820;29;20740;-82
2023/06/29 03:31:40;;;;;;;8.40;6.20;;;;;;;9.66;100.00;93087.63;2023350;29;20033;-82
2023/06/29 03:32:45;;;;;;;9.10;6.60;;;;;;;9.68;100.00;93077.28;2012121;29;20055;-84
2023/06/29 03:33:52;;;;;;;9.25;6.43;;;;;;;9.70;100.00;93079.53;2006057;29;20017;-85
2023/06/29 03:34:58;;;;;;;12.85;6.38;;;;;;;9.72;100.00;93083.31;2014602;29;20029;-80
2023/06/29 03:36:04;;;;;;;9.63;6.70;;;;;;;9.77;100.00;93084.75;2007552;29;20025;-83
2023/06/29 03:37:11;;;;;;;9.32;6.70;;;;;;;9.74;100.00;93078.31;2006576;29;20041;-82
2023/06/29 03:38:27;;;;;;;10.45;6.50;;;;;;;9.72;100.00;93085.22;2014417;29;20116;-80
2023/06/29 03:39:35;;;;;;;7.68;6.57;;;;;;;9.73;100.00;93089.41;2010791;29;20047;-79
2023/06/29 03:40:41;;;;;;;9.18;6.63;;;;;;;9.72;100.00;93091.31;2012065;29;20033;-82
2023/06/29 03:41:50;;;;;;;9.98;6.57;;;;;;;9.62;100.00;93086.19;2019174;29;20052;-79
2023/06/29 03:42:57;;;;;;;7.65;6.80;;;;;;;9.67;100.00;93083.78;2016796;29;20096;-81
2023/06/29 03:44:05;;;;;;;9.55;6.15;;;;;;;9.71;100.00;93083.72;2018137;29;20154;-80
2023/06/29 03:45:14;;;;;;;7.50;6.63;;;;;;;9.69;100.00;93080.72;2005139;29;20026;-79
2023/06/29 03:46:23;;;;;;;8.82;6.78;;;;;;;9.70;100.00;93077.66;2017158;29;20056;-82
2023/06/29 03:47:33;;;;;;;10.73;6.55;;;;;;;9.71;100.00;93081.81;2019646;29;20438;-79
2023/06/29 03:48:43;;;;;;;7.67;6.77;;;;;;;9.73;100.00;93081.38;2016563;29;20032;-79
2023/06/29 03:49:50;;;;;;;;;;;;;;;9.69;100.00;93076.13;2014372;29;20503;-83
2023/06/29 03:51:03;;;;;;;11.23;7.22;;;;;;;9.66;100.00;93082.28;2018024;29;19999;-82
2023/06/29 03:52:09;;;;;;;11.32;6.65;;;;;;;9.61;100.00;93077.41;2016027;29;20048;-80
2023/06/29 03:53:16;;;;;;;11.20;6.50;;;;;;;9.67;100.00;93080.38;2020018;29;20035;-81
2023/06/29 03:54:22;;;;;;;8.73;6.60;;;;;;;9.74;100.00;93080.22;2018509;29;20029;-82
2023/06/29 03:55:28;;;;;;;10.88;6.72;;;;;;;9.72;100.00;93085.22;2012445;29;20032;-81
2023/06/29 03:56:38;;;;;;;9.68;6.32;;;;;;;9.69;100.00;93073.44;2005502;29;20025;-81
2023/06/29 03:57:46;;;;;;;8.57;6.55;;;;;;;9.74;100.00;93077.56;2006685;29;20029;-82
2023/06/29 03:58:56;;;;;;;7.65;6.35;;;;;;;9.68;100.00;93077.28;2013408;29;20033;-82
2023/06/29 04:00:08;;;;;;;9.45;6.72;;;;;;;9.61;100.00;93074.75;2011843;29;20037;-82
2023/06/29 04:01:19;;;;;;;10.82;6.93;;;;;;;9.78;100.00;93073.66;2005449;29;20128;-80
2023/06/29 04:02:28;;;;;;;11.20;6.82;;;;;;;9.78;100.00;93078.25;2006975;29;20034;-81
2023/06/29 04:03:36;;;;;;;9.57;7.00;;;;;;;9.77;100.00;93074.06;2009719;29;20057;-82
2023/06/29 04:04:46;;;;;;;11.00;6.82;;;;;;;9.83;100.00;93075.09;2011684;29;20761;-82
2023/06/29 04:05:53;;;;;;;11.38;7.45;;;;;;;9.80;100.00;93084.69;2011550;29;20022;-81
2023/06/29 04:07:00;;;;;;;9.18;6.88;;;;;;;9.82;100.00;93078.94;2012684;29;20029;-80
2023/06/29 04:08:05;;;;;;;8.60;6.57;;;;;;;9.87;100.00;93081.09;2015282;29;20089;-82
2023/06/29 04:09:14;;;;;;;10.05;7.22;;;;;;;9.84;100.00;93077.38;2014055;29;20075;-79
2023/06/29 04:10:17;;;;;;;12.65;7.22;;;;;;;9.75;100.00;93079.84;2016562;29;20037;-81
2023/06/29 04:11:24;;;;;;;8.90;6.70;;;;;;;9.82;100.00;93077.00;2020995;29;20599;-82
2023/06/29 04:12:32;;;;;;;10.55;7.50;;;;;;;9.83;100.00;93083.09;2033850;29;20021;-80
2023/06/29 04:13:39;;;;;;;11.02;7.40;;;;;;;9.87;100.00;93077.69;2019973;29;20037;-79
2023/06/29 04:14:43;;;;;;;8.98;6.53;;;;;;;9.91;100.00;93079.13;2011137;29;20528;-81
2023/06/29 04:15:51;;;;;;;8.77;6.55;;;;;;;9.95;100.00;93079.81;2012471;29;20092;-80
2023/06/29 04:17:34;;;;;;;10.98;7.65;;;;;;;9.96;100.00;93075.97;2015320;29;20025;-82
2023/06/29 04:18:37;;;;;;;10.25;6.65;;;;;;;10.03;100.00;93083.84;2019725;29;20033;-82
2023/06/29 04:19:42;;;;;;;11.05;7.03;;;;;;;10.03;100.00;93081.19;2017466;29;20033;-81
2023/06/29 04:20:49;;;;;;;8.75;6.72;;;;;;;10.07;100.00;93070.44;2010284;29;20152;-85
2023/06/29 04:21:52;;;;;;;9.88;6.57;;;;;;;10.09;100.00;93079.50;2010530;29;20054;-80
2023/06/29 04:22:54;;;;;;;13.35;7.32;;;;;;;10.11;100.00;93073.78;2010127;29;20113;-81
2023/06/29 04:23:56;;;;;;;11.02;6.97;;;;;;;10.12;100.00;93075.28;2005527;29;20685;-80
2023/06/29 04:24:58;;;;;;;19.38;7.20;;;;;;;10.15;100.00;93077.13;2002095;29;20033;-82
2023/06/29 04:26:03;;;;;;;7.90;6.90;;;;;;;10.14;100.00;93072.97;2006565;29;20491;-82
2023/06/29 04:27:06;;;;;;;8.43;6.70;;;;;;;10.17;100.00;93079.38;2000790;29;20174;-85
2023/06/29 04:28:09;;;;;;;9.27;6.90;;;;;;;10.19;100.00;93085.06;2001939;29;20026;-83
2023/06/29 04:29:10;;;;;;;8.10;7.13;;;;;;;10.19;100.00;93080.47;2002234;29;20034;-82
2023/06/29 04:30:17;;;;;;;8.43;6.93;;;;;;;10.22;100.00;93079.63;2009811;29;20029;-85
2023/06/29 04:31:20;;;;;;;9.13;7.00;;;;;;;10.28;100.00;93077.28;2011219;29;20153;-80
2023/06/29 04:32:44;;;;;;;13.10;7.40;;;;;;;10.29;100.00;93071.50;2010031;29;20144;-79
2023/06/29 04:33:45;;;;;;;10.32;6.80;;;;;;;10.32;100.00;93070.69;2017444;29;20089;-83
2023/06/29 04:34:51;;;;;;;11.63;7.05;;;;;;;10.25;100.00;93062.81;2002675;29;20082;-83
2023/06/29 04:35:53;;;;;;;12.27;7.63;;;;;;;10.29;100.00;93066.16;1994997;29;20062;-86
2023/06/29 04:37:02;;;;;;;11.75;6.97;;;;;;;10.37;100.00;93066.03;2001717;29;20136;-80
2023/06/29 04:38:05;;;;;;;8.25;6.95;;;;;;;10.39;100.00;93067.09;2003309;29;20041;-83
2023/06/29 04:39:08;;;;;;;9.90;7.25;;;;;;;10.43;100.00;93064.34;1999593;29;20022;-80
2023/06/29 04:40:18;;;;;;;15.23;7.88;;;;;;;10.51;100.00;93061.09;2001981;29;20135;-81
2023/06/29 04:41:19;;;;;;;12.80;7.78;;;;;;;10.53;100.00;93066.78;2003695;29;20045;-81
2023/06/29 04:42:25;;;;;;;11.43;7.28;;;;;;;10.62;100.00;93068.88;2010260;29;20077;-81
2023/06/29 04:43:28;;;;;;;10.82;7.60;;;;;;;10.67;100.00;93060.38;2009790;29;20112;-82
2023/06/29 04:44:31;;;;;;;13.63;8.25;;;;;;;10.66;100.00;93060.78;2016554;29;20132;-81
2023/06/29 04:45:33;;;;;;;12.85;8.13;;;;;;;10.71;100.00;93063.72;2009370;29;20565;-82
2023/06/29 04:46:40;;;;;;;11.35;7.47;;;;;;;10.76;100.00;93060.53;2017027;29;20066;-83
2023/06/29 04:47:41;;;;;;;17.88;8.48;;;;;;;10.74;100.00;93057.53;2021807;29;20028;-81
2023/06/29 04:48:46;;;;;;;11.23;7.70;;;;;;;10.88;100.00;93066.38;2017225;29;20033;-80
2023/06/29 04:49:52;;;;;;;15.25;8.90;;;;;;;10.95;100.00;93063.53;2017480;29;20031;-81
2023/06/29 04:50:55;;;;;;;13.52;8.35;;;;;;;10.94;100.00;93059.38;2003670;29;20530;-82
2023/06/29 04:52:10;;;;;;;12.40;8.23;;;;;;;10.98;100.00;93066.13;2017164;29;20410;-81
2023/06/29 04:53:12;;;;;;;13.18;8.27;;;;;;;11.03;100.00;93067.56;2010848;29;20804;-83
2023/06/29 04:54:14;;;;;;;18.50;8.63;;;;;;;11.09;100.00;93071.97;2012813;29;21473;-80
2023/06/29 04:55:15;;;;;;;13.70;8.10;;;;;;;11.11;100.00;93071.56;2023011;29;20048;-81
2023/06/29 04:56:16;;;;;;;16.33;8.18;;;;;;;11.13;100.00;93066.53;2016954;29;20032;-80
2023/06/29 04:57:17;;;;;;;14.13;7.88;;;;;;;11.16;100.00;93062.28;2001810;29;20026;-83
2023/06/29 04:58:18;;;;;;;14.65;8.23;;;;;;;11.20;100.00;93065.63;2009918;29;20040;-82
2023/06/29 04:59:25;;;;;;;16.42;8.27;;;;;;;11.25;100.00;93067.78;2017729;29;20056;-84
2023/06/29 05:00:26;;;;;;;13.68;8.05;;;;;;;11.23;100.00;93067.44;2018755;29;20081;-82
2023/06/29 05:01:30;;;;;;;12.43;8.50;;;;;;;11.31;100.00;93063.41;2009897;29;20029;-83
2023/06/29 05:02:31;;;;;;;27.60;9.00;;;;;;;11.38;100.00;93071.28;2015728;29;20052;-82
2023/06/29 05:03:33;;;;;;;23.35;8.93;;;;;;;11.44;100.00;93068.81;2018161;29;20036;-81
2023/06/29 05:04:36;;;;;;;13.55;8.90;;;;;;;11.45;100.00;93065.72;2017945;29;20538;-83
2023/06/29 05:05:37;;;;;;;18.00;9.10;;;;;;;11.49;100.00;93066.38;2010537;29;20073;-83
2023/06/29 05:06:38;;;;;;;14.90;8.40;;;;;;;11.53;100.00;93063.63;2000527;29;20034;-81
2023/06/29 05:07:42;;;;;;;13.57;8.15;;;;;;;11.60;100.00;93061.50;2001203;29;20356;-83